Time;durP1;ratioP1;P1;durP2;ratioP2;P2;SDS_P1;SDS_P2;PMS_P1;PMS_P2;Temp;Humidity;BMP_temperature;BMP_pressure;BME280_temperature;BME280_humidity;BME280_pressure;Samples;Min_cycle;Max_cycle;Signal;HPM_P1;HPM_P2
2024/04/12 00:01:00;;;;;;;0.10;0.10;;;;;;;;;;5413810;26;20463;-84
2024/04/12 00:03:27;;;;;;;0.10;0.10;;;;;;;;;;5415627;26;19992;-84
2024/04/12 00:06:00;;;;;;;0.10;0.10;;;;;;;;;;5415369;26;19999;-85
2024/04/12 00:08:30;;;;;;;0.10;0.10;;;;;;;;;;5414287;26;20016;-84
2024/04/12 00:11:00;;;;;;;0.40;0.40;;;;;;;;;;5415261;26;20443;-84
2024/04/12 00:13:31;;;;;;;0.10;0.10;;;;;;;;;;5415325;26;20340;-84
2024/04/12 00:15:59;;;;;;;0.10;0.10;;;;;;;;;;5385032;26;20011;-84
2024/04/12 00:18:28;;;;;;;0.10;0.10;;;;;;;;;;5415449;26;19996;-84
2024/04/12 00:20:58;;;;;;;0.20;0.20;;;;;;;;;;5415580;26;20019;-85
2024/04/12 00:23:28;;;;;;;0.20;0.20;;;;;;;;;;5416938;26;20479;-85
2024/04/12 00:25:55;;;;;;;0.10;0.10;;;;;;;;;;5388198;26;20374;-85
2024/04/12 00:28:22;;;;;;;0.15;0.15;;;;;;;;;;5418674;26;20052;-84
2024/04/12 00:30:50;;;;;;;0.10;0.10;;;;;;;;;;5418984;26;20010;-85
2024/04/12 00:33:19;;;;;;;0.10;0.10;;;;;;;;;;5417398;26;20308;-84
2024/04/12 00:35:49;;;;;;;0.10;0.10;;;;;;;;;;5418828;26;20010;-85
2024/04/12 00:38:16;;;;;;;0.10;0.10;;;;;;;;;;5388601;26;20016;-85
2024/04/12 00:40:46;;;;;;;0.10;0.10;;;;;;;;;;5416018;26;20015;-85
2024/04/12 00:43:17;;;;;;;0.20;0.20;;;;;;;;;;5417459;26;20028;-85
2024/04/12 00:45:45;;;;;;;0.10;0.10;;;;;;;;;;5418503;26;19999;-84
2024/04/12 00:48:14;;;;;;;0.20;0.20;;;;;;;;;;5417071;26;20015;-84
2024/04/12 00:50:43;;;;;;;0.10;0.10;;;;;;;;;;5416796;26;20056;-84
2024/04/12 00:53:10;;;;;;;0.10;0.10;;;;;;;;;;5416555;26;20019;-84
2024/04/12 00:55:39;;;;;;;0.20;0.20;;;;;;;;;;5416006;26;20011;-84
2024/04/12 00:58:09;;;;;;;0.10;0.10;;;;;;;;;;5418756;26;20016;-84
2024/04/12 01:00:36;;;;;;;0.10;0.10;;;;;;;;;;5415914;26;20028;-84
2024/04/12 01:03:05;;;;;;;0.10;0.10;;;;;;;;;;5416225;26;20028;-85
2024/04/12 01:05:32;;;;;;;0.10;0.10;;;;;;;;;;5416413;26;20010;-84
2024/04/12 01:08:00;;;;;;;0.10;0.10;;;;;;;;;;5416782;26;20028;-85
2024/04/12 01:10:30;;;;;;;0.10;0.10;;;;;;;;;;5418788;26;20002;-84
2024/04/12 01:13:02;;;;;;;0.10;0.10;;;;;;;;;;5417082;26;20026;-84
2024/04/12 01:15:36;;;;;;;0.10;0.10;;;;;;;;;;5416835;26;20024;-85
2024/04/12 01:18:04;;;;;;;0.25;0.25;;;;;;;;;;5418339;26;20378;-85
2024/04/12 01:20:39;;;;;;;0.10;0.10;;;;;;;;;;5418238;26;20000;-84
2024/04/12 01:23:06;;;;;;;0.32;0.20;;;;;;;;;;5388293;26;20313;-84
2024/04/12 01:25:34;;;;;;;0.10;0.10;;;;;;;;;;5416831;26;19996;-84
2024/04/12 01:28:04;;;;;;;0.20;0.20;;;;;;;;;;5386993;26;20028;-84
2024/04/12 01:30:34;;;;;;;0.10;0.10;;;;;;;;;;5416256;26;20019;-87
2024/04/12 01:33:06;;;;;;;0.10;0.10;;;;;;;;;;5417242;26;19996;-84
2024/04/12 01:35:33;;;;;;;0.10;0.10;;;;;;;;;;5387962;26;20025;-84
2024/04/12 01:38:16;;;;;;;0.20;0.20;;;;;;;;;;5415536;26;20024;-84
2024/04/12 01:40:46;;;;;;;0.10;0.10;;;;;;;;;;5389889;26;19999;-84
2024/04/12 01:43:14;;;;;;;0.10;0.10;;;;;;;;;;5418021;26;20468;-85
2024/04/12 01:45:41;;;;;;;0.10;0.10;;;;;;;;;;5414244;26;20020;-84
2024/04/12 01:48:08;;;;;;;0.10;0.10;;;;;;;;;;5415767;26;20352;-84
2024/04/12 01:50:40;;;;;;;0.30;0.30;;;;;;;;;;5416368;26;20023;-84
2024/04/12 01:53:09;;;;;;;0.25;0.25;;;;;;;;;;5418212;26;20451;-84
2024/04/12 01:55:40;;;;;;;0.30;0.30;;;;;;;;;;5416333;26;20019;-82
2024/04/12 01:58:07;;;;;;;0.10;0.10;;;;;;;;;;5415701;26;20016;-83
2024/04/12 02:00:35;;;;;;;0.10;0.10;;;;;;;;;;5415022;26;20023;-84
2024/04/12 02:03:02;;;;;;;0.10;0.10;;;;;;;;;;5386391;26;20355;-84
2024/04/12 02:05:32;;;;;;;0.10;0.10;;;;;;;;;;5417390;26;20352;-85
2024/04/12 02:08:08;;;;;;;0.30;0.30;;;;;;;;;;5387083;26;20342;-83
2024/04/12 02:10:36;;;;;;;0.30;0.30;;;;;;;;;;5415542;26;20011;-85
2024/04/12 02:13:04;;;;;;;0.10;0.10;;;;;;;;;;5415562;26;20015;-84
2024/04/12 02:15:31;;;;;;;0.20;0.20;;;;;;;;;;5416045;26;20019;-85
2024/04/12 02:17:58;;;;;;;0.45;0.35;;;;;;;;;;5415346;26;20461;-84
2024/04/12 02:20:35;;;;;;;0.32;0.30;;;;;;;;;;5417651;26;20000;-83
2024/04/12 02:23:05;;;;;;;0.10;0.10;;;;;;;;;;5415261;26;20019;-85
2024/04/12 02:25:35;;;;;;;0.10;0.10;;;;;;;;;;5416922;26;19995;-84
2024/04/12 02:28:07;;;;;;;0.28;0.28;;;;;;;;;;5415454;26;20019;-85
2024/04/12 02:30:44;;;;;;;0.43;0.35;;;;;;;;;;5417289;26;20010;-85
2024/04/12 02:33:12;;;;;;;0.10;0.10;;;;;;;;;;5417888;26;19996;-84
2024/04/12 02:35:41;;;;;;;0.10;0.10;;;;;;;;;;5415702;26;20016;-84
2024/04/12 02:38:14;;;;;;;0.10;0.10;;;;;;;;;;5385813;26;20028;-85
2024/04/12 02:40:45;;;;;;;0.10;0.10;;;;;;;;;;5387115;26;20020;-83
2024/04/12 02:43:15;;;;;;;0.10;0.10;;;;;;;;;;5416785;26;20024;-83
2024/04/12 02:45:48;;;;;;;0.15;0.15;;;;;;;;;;5413634;26;20032;-84
2024/04/12 02:48:22;;;;;;;0.10;0.10;;;;;;;;;;5414997;26;20021;-84
2024/04/12 02:50:53;;;;;;;0.20;0.20;;;;;;;;;;5414730;26;20023;-84
2024/04/12 02:53:22;;;;;;;0.10;0.10;;;;;;;;;;5386649;26;19999;-84
2024/04/12 02:56:03;;;;;;;0.17;0.17;;;;;;;;;;5415549;26;20023;-83
2024/04/12 02:58:38;;;;;;;1.08;0.38;;;;;;;;;;5414878;26;20020;-83
2024/04/12 03:01:19;;;;;;;0.30;0.30;;;;;;;;;;5387139;26;20016;-84
2024/04/12 03:03:47;;;;;;;0.30;0.30;;;;;;;;;;5414897;26;20072;-84
2024/04/12 03:06:17;;;;;;;0.30;0.30;;;;;;;;;;5414142;26;20015;-83
2024/04/12 03:08:47;;;;;;;0.10;0.10;;;;;;;;;;5417183;26;20006;-83
2024/04/12 03:11:21;;;;;;;0.40;0.32;;;;;;;;;;5416538;26;20000;-84
2024/04/12 03:13:50;;;;;;;0.40;0.40;;;;;;;;;;5414982;26;20019;-82
2024/04/12 03:16:21;;;;;;;0.13;0.13;;;;;;;;;;5414403;26;20016;-83
2024/04/12 03:18:51;;;;;;;0.10;0.10;;;;;;;;;;5414147;26;20003;-84
2024/04/12 03:21:21;;;;;;;0.10;0.10;;;;;;;;;;5416241;26;20375;-84
2024/04/12 03:23:49;;;;;;;0.22;0.22;;;;;;;;;;5413995;26;20016;-84
2024/04/12 03:26:23;;;;;;;0.10;0.10;;;;;;;;;;5385187;26;20016;-83
2024/04/12 03:28:54;;;;;;;0.28;0.28;;;;;;;;;;5386625;26;20015;-84
2024/04/12 03:31:25;;;;;;;0.10;0.10;;;;;;;;;;5414596;26;20032;-83
2024/04/12 03:33:54;;;;;;;0.10;0.10;;;;;;;;;;5414741;26;20019;-84
2024/04/12 03:41:50;;;;;;;0.10;0.10;;;;;;;;;;5415675;26;20000;-84
2024/04/12 03:44:20;;;;;;;0.10;0.10;;;;;;;;;;5414056;26;20019;-83
2024/04/12 03:46:50;;;;;;;0.17;0.17;;;;;;;;;;5414376;26;20019;-84
2024/04/12 03:49:20;;;;;;;0.10;0.10;;;;;;;;;;5414032;26;20024;-84
2024/04/12 03:51:54;;;;;;;0.30;0.30;;;;;;;;;;5415975;26;19999;-84
2024/04/12 03:54:21;;;;;;;0.10;0.10;;;;;;;;;;5415832;26;20010;-84
2024/04/12 03:56:49;;;;;;;0.20;0.20;;;;;;;;;;5416889;26;20016;-84
2024/04/12 03:59:17;;;;;;;0.30;0.30;;;;;;;;;;5417092;26;20020;-84
2024/04/12 04:01:45;;;;;;;0.10;0.10;;;;;;;;;;5417019;26;20016;-84
2024/04/12 04:04:17;;;;;;;0.10;0.10;;;;;;;;;;5417136;26;20016;-84
2024/04/12 04:06:49;;;;;;;0.10;0.10;;;;;;;;;;5419238;26;20435;-84
2024/04/12 04:09:19;;;;;;;0.10;0.10;;;;;;;;;;5417766;26;20379;-84
2024/04/12 04:11:47;;;;;;;0.20;0.20;;;;;;;;;;5388366;26;20446;-84
2024/04/12 04:14:19;;;;;;;0.47;0.47;;;;;;;;;;5417550;26;20020;-84
2024/04/12 04:17:04;;;;;;;0.20;0.20;;;;;;;;;;5419775;26;20020;-84
2024/04/12 04:19:33;;;;;;;0.10;0.10;;;;;;;;;;5419520;26;19996;-84
2024/04/12 04:22:01;;;;;;;0.10;0.10;;;;;;;;;;5388141;26;20011;-83
2024/04/12 04:24:29;;;;;;;0.40;0.40;;;;;;;;;;5418773;26;20028;-84
2024/04/12 04:26:56;;;;;;;0.10;0.10;;;;;;;;;;5417423;26;20015;-84
2024/04/12 04:29:24;;;;;;;0.10;0.10;;;;;;;;;;5419431;26;20510;-85
2024/04/12 04:31:52;;;;;;;0.10;0.10;;;;;;;;;;5417313;26;20022;-85
2024/04/12 04:34:20;;;;;;;0.20;0.20;;;;;;;;;;5418971;26;19996;-84
2024/04/12 04:36:50;;;;;;;0.20;0.20;;;;;;;;;;5419081;26;20379;-85
2024/04/12 04:39:17;;;;;;;0.47;0.20;;;;;;;;;;5416515;26;19995;-84
2024/04/12 04:41:48;;;;;;;0.20;0.20;;;;;;;;;;5417073;26;20024;-85
2024/04/12 04:44:16;;;;;;;0.20;0.20;;;;;;;;;;5418519;26;20031;-84
2024/04/12 04:46:44;;;;;;;0.20;0.20;;;;;;;;;;5386990;26;20469;-84
2024/04/12 04:49:15;;;;;;;0.20;0.20;;;;;;;;;;5418406;26;20007;-85
2024/04/12 04:51:46;;;;;;;0.75;0.65;;;;;;;;;;5416502;26;20028;-84
2024/04/12 04:54:13;;;;;;;0.10;0.10;;;;;;;;;;5418673;26;20436;-84
2024/04/12 04:56:41;;;;;;;0.10;0.10;;;;;;;;;;5418317;26;20006;-83
2024/04/12 04:59:16;;;;;;;0.80;0.47;;;;;;;;;;5416137;26;19999;-84
2024/04/12 05:01:48;;;;;;;0.32;0.32;;;;;;;;;;5418479;26;19996;-84
2024/04/12 05:04:16;;;;;;;0.10;0.10;;;;;;;;;;5417056;26;20019;-84
2024/04/12 05:06:44;;;;;;;0.15;0.15;;;;;;;;;;5417879;26;20006;-84
2024/04/12 05:09:30;;;;;;;0.10;0.10;;;;;;;;;;5416731;26;20021;-86
2024/04/12 05:11:57;;;;;;;0.10;0.10;;;;;;;;;;5417958;26;19995;-84
2024/04/12 05:17:03;;;;;;;0.25;0.25;;;;;;;;;;5416834;26;20015;-83
2024/04/12 05:19:40;;;;;;;0.10;0.10;;;;;;;;;;5418209;26;19996;-82
2024/04/12 05:22:10;;;;;;;0.10;0.10;;;;;;;;;;5416792;26;20019;-82
2024/04/12 05:24:39;;;;;;;0.10;0.10;;;;;;;;;;5418075;26;20457;-83
2024/04/12 05:27:07;;;;;;;0.30;0.30;;;;;;;;;;5387504;26;20359;-83
2024/04/12 05:29:34;;;;;;;0.10;0.10;;;;;;;;;;5416799;26;20015;-82
2024/04/12 05:32:02;;;;;;;0.10;0.10;;;;;;;;;;5418233;26;20016;-82
2024/04/12 05:34:31;;;;;;;1.45;0.20;;;;;;;;;;5418126;26;19999;-83
2024/04/12 05:37:04;;;;;;;0.10;0.10;;;;;;;;;;5416423;26;20236;-82
2024/04/12 05:39:35;;;;;;;0.10;0.10;;;;;;;;;;5418217;26;20004;-83
2024/04/12 05:42:05;;;;;;;0.10;0.10;;;;;;;;;;5416014;26;20356;-83
2024/04/12 05:44:35;;;;;;;0.40;0.40;;;;;;;;;;5416155;26;20019;-83
2024/04/12 05:47:07;;;;;;;0.10;0.10;;;;;;;;;;5417933;26;19999;-83
2024/04/12 05:49:34;;;;;;;0.10;0.10;;;;;;;;;;5418532;26;20439;-83
2024/04/12 05:52:02;;;;;;;0.10;0.10;;;;;;;;;;5418247;26;20010;-83
2024/04/12 05:54:44;;;;;;;0.10;0.10;;;;;;;;;;5418665;26;20425;-83
2024/04/12 05:57:13;;;;;;;;;;;;;;;;;;5416769;26;20017;-82
2024/04/12 05:59:42;;;;;;;0.10;0.10;;;;;;;;;;5417764;26;19925;-82
2024/04/12 06:02:16;;;;;;;0.20;0.20;;;;;;;;;;5416020;26;20020;-83
2024/04/12 06:04:47;;;;;;;0.10;0.10;;;;;;;;;;5416502;26;20019;-83
2024/04/12 06:07:15;;;;;;;0.20;0.20;;;;;;;;;;5416048;26;20003;-83
2024/04/12 06:09:47;;;;;;;0.20;0.20;;;;;;;;;;5415392;26;20020;-83
2024/04/12 06:12:16;;;;;;;0.10;0.10;;;;;;;;;;5415801;26;20355;-84
2024/04/12 06:14:45;;;;;;;0.10;0.10;;;;;;;;;;5415112;26;20020;-85
2024/04/12 06:17:12;;;;;;;0.10;0.10;;;;;;;;;;5415853;26;20028;-85
2024/04/12 06:19:40;;;;;;;0.10;0.10;;;;;;;;;;5417405;26;19995;-85
2024/04/12 06:22:13;;;;;;;0.10;0.10;;;;;;;;;;5417379;26;19999;-86
2024/04/12 06:24:48;;;;;;;0.10;0.10;;;;;;;;;;5416343;26;20019;-88
2024/04/12 06:27:16;;;;;;;0.10;0.10;;;;;;;;;;5415965;26;20443;-84
2024/04/12 06:29:46;;;;;;;0.20;0.10;;;;;;;;;;5386042;26;20020;-83
2024/04/12 06:32:16;;;;;;;0.10;0.10;;;;;;;;;;5386483;26;20460;-84
2024/04/12 06:34:43;;;;;;;0.10;0.10;;;;;;;;;;5386578;26;20020;-82
2024/04/12 06:37:13;;;;;;;0.25;0.25;;;;;;;;;;5415781;26;20019;-82
2024/04/12 06:39:43;;;;;;;0.10;0.10;;;;;;;;;;5386037;26;20028;-83
2024/04/12 06:42:10;;;;;;;0.10;0.10;;;;;;;;;;5386491;26;20010;-84
2024/04/12 06:44:38;;;;;;;0.10;0.10;;;;;;;;;;5415343;26;20016;-85
2024/04/12 06:47:05;;;;;;;0.20;0.20;;;;;;;;;;5417096;26;19995;-84
2024/04/12 06:49:37;;;;;;;0.10;0.10;;;;;;;;;;5416444;26;19996;-85
2024/04/12 06:52:11;;;;;;;0.15;0.15;;;;;;;;;;5386564;26;20482;-86
2024/04/12 06:54:42;;;;;;;0.20;0.20;;;;;;;;;;5415524;26;20442;-84
2024/04/12 06:57:09;;;;;;;0.10;0.10;;;;;;;;;;5386337;26;20067;-81
2024/04/12 06:59:37;;;;;;;0.10;0.10;;;;;;;;;;5416800;26;19996;-82
2024/04/12 07:02:08;;;;;;;0.10;0.10;;;;;;;;;;5416671;26;20340;-83
2024/04/12 07:04:38;;;;;;;0.10;0.10;;;;;;;;;;5384760;26;20019;-82
2024/04/12 07:07:05;;;;;;;0.10;0.10;;;;;;;;;;5397863;26;20032;-82
2024/04/12 07:09:32;;;;;;;0.20;0.20;;;;;;;;;;5350623;26;20032;-82
2024/04/12 07:12:07;;;;;;;0.10;0.10;;;;;;;;;;5379041;26;20028;-81
2024/04/12 07:14:36;;;;;;;0.10;0.10;;;;;;;;;;5379448;26;20037;-81
2024/04/12 07:17:20;;;;;;;0.10;0.10;;;;;;;;;;5380799;26;20004;-80
2024/04/12 07:19:50;;;;;;;0.17;0.17;;;;;;;;;;5379543;26;20123;-82
2024/04/12 07:22:21;;;;;;;0.10;0.10;;;;;;;;;;5394791;26;20004;-81
2024/04/12 07:24:50;;;;;;;0.30;0.30;;;;;;;;;;5380329;26;20025;-86
2024/04/12 07:27:17;;;;;;;0.40;0.40;;;;;;;;;;5379413;26;20428;-87
2024/04/12 07:29:46;;;;;;;0.10;0.10;;;;;;;;;;5381192;26;20011;-83
2024/04/12 07:32:14;;;;;;;0.38;0.38;;;;;;;;;;5383862;26;20075;-86
2024/04/12 07:34:51;;;;;;;0.20;0.20;;;;;;;;;;5384598;26;20011;-85
2024/04/12 07:37:26;;;;;;;0.10;0.10;;;;;;;;;;5382393;26;20020;-85
2024/04/12 07:40:17;;;;;;;0.10;0.10;;;;;;;;;;5382949;26;20025;-87
2024/04/12 07:42:48;;;;;;;0.10;0.10;;;;;;;;;;5382561;26;20020;-87
2024/04/12 07:45:37;;;;;;;0.10;0.10;;;;;;;;;;5384026;26;20020;-83
2024/04/12 07:50:47;;;;;;;0.20;0.20;;;;;;;;;;5384291;26;20004;-81
2024/04/12 07:55:45;;;;;;;0.20;0.20;;;;;;;;;;5384195;26;19996;-84
2024/04/12 07:58:12;;;;;;;0.40;0.40;;;;;;;;;;5384043;26;20011;-82
2024/04/12 08:00:45;;;;;;;0.10;0.10;;;;;;;;;;5353336;26;20029;-83
2024/04/12 08:03:16;;;;;;;0.10;0.10;;;;;;;;;;5384023;26;20010;-84
2024/04/12 08:05:59;;;;;;;0.28;0.20;;;;;;;;;;5382296;26;20017;-83
2024/04/12 08:08:28;;;;;;;0.10;0.10;;;;;;;;;;5383993;26;20004;-83
2024/04/12 08:10:58;;;;;;;0.10;0.10;;;;;;;;;;5383547;26;20000;-83
2024/04/12 08:13:28;;;;;;;0.10;0.10;;;;;;;;;;5383377;26;19996;-83
2024/04/12 08:15:59;;;;;;;0.30;0.30;;;;;;;;;;5383604;26;20440;-83
2024/04/12 08:18:28;;;;;;;0.20;0.20;;;;;;;;;;5383681;26;20436;-83
2024/04/12 08:21:01;;;;;;;0.10;0.10;;;;;;;;;;5383508;26;20094;-83
2024/04/12 08:23:29;;;;;;;0.15;0.15;;;;;;;;;;5354779;26;20028;-83
2024/04/12 08:25:58;;;;;;;0.10;0.10;;;;;;;;;;5383341;26;20447;-83
2024/04/12 08:28:26;;;;;;;0.10;0.10;;;;;;;;;;5353280;26;20464;-83
2024/04/12 08:31:05;;;;;;;0.30;0.30;;;;;;;;;;5382120;26;20028;-82
2024/04/12 08:33:32;;;;;;;0.10;0.10;;;;;;;;;;5382156;26;20000;-83
2024/04/12 08:36:01;;;;;;;0.10;0.10;;;;;;;;;;5383399;26;20000;-84
2024/04/12 08:38:28;;;;;;;0.10;0.10;;;;;;;;;;5381625;26;20021;-83
2024/04/12 08:40:56;;;;;;;0.10;0.10;;;;;;;;;;5383369;26;20019;-83
2024/04/12 08:43:41;;;;;;;0.10;0.10;;;;;;;;;;5380543;26;20452;-83
2024/04/12 08:46:17;;;;;;;0.10;0.10;;;;;;;;;;5381713;26;20020;-83
2024/04/12 08:48:46;;;;;;;0.20;0.20;;;;;;;;;;5383375;26;19996;-83
2024/04/12 08:51:14;;;;;;;0.10;0.10;;;;;;;;;;5383370;26;19996;-83
2024/04/12 08:53:44;;;;;;;0.20;0.20;;;;;;;;;;5381767;26;20024;-83
2024/04/12 08:56:17;;;;;;;0.20;0.20;;;;;;;;;;5354017;26;20028;-83
2024/04/12 08:58:52;;;;;;;0.10;0.10;;;;;;;;;;5383297;26;20007;-83
2024/04/12 09:01:21;;;;;;;0.20;0.20;;;;;;;;;;5383085;26;20000;-83
2024/04/12 09:03:51;;;;;;;0.10;0.10;;;;;;;;;;5383448;26;20000;-84
2024/04/12 09:06:23;;;;;;;0.10;0.10;;;;;;;;;;5382666;26;20016;-83
2024/04/12 09:08:51;;;;;;;0.10;0.10;;;;;;;;;;5383063;26;20000;-83
2024/04/12 09:11:25;;;;;;;0.10;0.10;;;;;;;;;;5382583;26;20004;-83
2024/04/12 09:13:55;;;;;;;0.10;0.10;;;;;;;;;;5381124;26;20016;-84
2024/04/12 09:16:23;;;;;;;0.10;0.10;;;;;;;;;;5382706;26;20007;-83
2024/04/12 09:18:51;;;;;;;0.10;0.10;;;;;;;;;;5382563;26;20011;-84
2024/04/12 09:21:24;;;;;;;0.10;0.10;;;;;;;;;;5382707;26;19996;-83
2024/04/12 09:23:51;;;;;;;;;;;;;;;;;;5382070;26;20022;-83
2024/04/12 09:26:24;;;;;;;0.10;0.10;;;;;;;;;;5380699;26;19950;-84
2024/04/12 09:29:11;;;;;;;0.13;0.13;;;;;;;;;;5353128;26;20021;-83
2024/04/12 09:34:55;;;;;;;0.10;0.10;;;;;;;;;;5379435;26;20024;-84
2024/04/12 09:37:43;;;;;;;0.35;0.35;;;;;;;;;;5381346;26;20000;-84
2024/04/12 09:42:47;;;;;;;0.20;0.20;;;;;;;;;;5380314;26;19996;-84
2024/04/12 09:45:21;;;;;;;0.20;0.20;;;;;;;;;;5353823;26;20020;-84
2024/04/12 10:38:38;;;;;;;0.10;0.10;;;;;;;;;;5363374;26;20021;-81
2024/04/12 10:41:07;;;;;;;0.20;0.20;;;;;;;;;;5380656;26;20019;-84
2024/04/12 10:43:41;;;;;;;0.20;0.20;;;;;;;;;;5379778;26;20020;-84
2024/04/12 10:46:11;;;;;;;0.20;0.20;;;;;;;;;;5351476;26;20024;-84
2024/04/12 10:48:39;;;;;;;0.20;0.20;;;;;;;;;;5381724;26;19996;-84
2024/04/12 10:51:09;;;;;;;0.10;0.10;;;;;;;;;;5381790;26;20360;-84
2024/04/12 10:53:38;;;;;;;0.10;0.10;;;;;;;;;;5381734;26;20007;-84
2024/04/12 10:56:07;;;;;;;0.20;0.20;;;;;;;;;;5381125;26;20333;-84
2024/04/12 10:58:34;;;;;;;0.10;0.10;;;;;;;;;;5379416;26;20028;-84
2024/04/12 11:01:04;;;;;;;0.10;0.10;;;;;;;;;;5381270;26;20000;-84
2024/04/12 11:03:38;;;;;;;0.20;0.20;;;;;;;;;;5351501;26;20506;-84
2024/04/12 11:09:04;;;;;;;0.20;0.20;;;;;;;;;;5372228;26;20019;-84
2024/04/12 11:11:32;;;;;;;0.25;0.25;;;;;;;;;;5380770;26;20005;-84
2024/04/12 11:13:59;;;;;;;0.43;0.20;;;;;;;;;;5379651;26;20016;-84
2024/04/12 11:33:12;;;;;;;0.10;0.10;;;;;;;;;;5379645;26;20684;-84
2024/04/12 11:35:41;;;;;;;0.10;0.10;;;;;;;;;;5378639;26;20001;-84
2024/04/12 11:38:13;;;;;;;0.50;0.50;;;;;;;;;;5379381;26;20020;-84
2024/04/12 11:40:40;;;;;;;0.10;0.10;;;;;;;;;;5380465;26;19996;-84
2024/04/12 11:43:07;;;;;;;0.10;0.10;;;;;;;;;;5378792;26;20017;-84
2024/04/12 11:45:41;;;;;;;0.10;0.10;;;;;;;;;;5380389;26;20355;-84
2024/04/12 11:48:14;;;;;;;0.20;0.20;;;;;;;;;;5379139;26;20025;-84
2024/04/12 11:50:42;;;;;;;0.10;0.10;;;;;;;;;;5380475;26;20004;-84
2024/04/12 11:53:10;;;;;;;0.20;0.20;;;;;;;;;;5380410;26;20384;-84
2024/04/12 11:55:41;;;;;;;0.10;0.10;;;;;;;;;;5378983;26;20033;-84
2024/04/12 11:58:08;;;;;;;0.20;0.20;;;;;;;;;;5380677;26;20429;-84
2024/04/12 12:00:37;;;;;;;0.20;0.20;;;;;;;;;;5379742;26;20011;-83
2024/04/12 12:03:04;;;;;;;0.20;0.20;;;;;;;;;;5380306;26;20023;-84
2024/04/12 12:05:37;;;;;;;0.20;0.20;;;;;;;;;;5378209;26;20032;-84
2024/04/12 12:08:05;;;;;;;0.20;0.20;;;;;;;;;;5378869;26;20016;-84
2024/04/12 12:10:34;;;;;;;0.20;0.20;;;;;;;;;;5378781;26;20000;-84
2024/04/12 12:13:01;;;;;;;0.20;0.20;;;;;;;;;;5378640;26;20000;-84
2024/04/12 12:15:29;;;;;;;0.10;0.10;;;;;;;;;;5380131;26;20436;-84
2024/04/12 12:17:56;;;;;;;0.10;0.10;;;;;;;;;;5382901;26;20010;-84
2024/04/12 12:20:24;;;;;;;0.10;0.10;;;;;;;;;;5383498;26;20259;-84
2024/04/12 12:22:52;;;;;;;0.10;0.10;;;;;;;;;;5381747;26;20415;-84
2024/04/12 12:25:19;;;;;;;0.10;0.10;;;;;;;;;;5381205;26;20007;-84
2024/04/12 12:27:46;;;;;;;0.22;0.22;;;;;;;;;;5381716;26;20025;-84
2024/04/12 12:30:14;;;;;;;0.10;0.10;;;;;;;;;;5382944;26;19996;-84
2024/04/12 12:32:44;;;;;;;0.10;0.10;;;;;;;;;;5383555;26;20344;-84
2024/04/12 12:35:22;;;;;;;0.13;0.13;;;;;;;;;;5382182;26;20020;-84
2024/04/12 12:37:49;;;;;;;0.20;0.20;;;;;;;;;;5383894;26;20011;-84
2024/04/12 12:40:21;;;;;;;0.20;0.20;;;;;;;;;;5382959;26;20011;-84
2024/04/12 12:42:51;;;;;;;0.20;0.20;;;;;;;;;;5381394;26;20028;-83
2024/04/12 12:45:19;;;;;;;0.10;0.10;;;;;;;;;;5381834;26;20453;-84
2024/04/12 12:47:50;;;;;;;0.10;0.10;;;;;;;;;;5383544;26;20020;-84
2024/04/12 12:50:19;;;;;;;0.22;0.22;;;;;;;;;;5381098;26;20020;-84
2024/04/12 12:52:50;;;;;;;0.10;0.10;;;;;;;;;;5382744;26;20011;-84
2024/04/12 12:55:20;;;;;;;0.10;0.10;;;;;;;;;;5383119;26;20011;-84
2024/04/12 12:57:48;;;;;;;0.10;0.10;;;;;;;;;;5353377;26;20026;-84
2024/04/12 13:00:19;;;;;;;0.10;0.10;;;;;;;;;;5383550;26;20004;-84
2024/04/12 13:02:50;;;;;;;0.20;0.20;;;;;;;;;;5381575;26;20000;-84
2024/04/12 13:05:20;;;;;;;0.10;0.10;;;;;;;;;;5382861;26;20007;-84
2024/04/12 13:07:51;;;;;;;0.10;0.10;;;;;;;;;;5382779;26;20020;-84
2024/04/12 13:10:19;;;;;;;0.30;0.30;;;;;;;;;;5380963;26;20016;-84
2024/04/12 13:12:51;;;;;;;0.10;0.10;;;;;;;;;;5380967;26;20447;-84
2024/04/12 13:15:19;;;;;;;0.20;0.20;;;;;;;;;;5380952;26;20029;-84
2024/04/12 13:17:47;;;;;;;0.10;0.10;;;;;;;;;;5380490;26;20024;-84
2024/04/12 13:20:20;;;;;;;0.20;0.20;;;;;;;;;;5382842;26;20000;-83
2024/04/12 13:22:47;;;;;;;0.10;0.10;;;;;;;;;;5381479;26;20016;-83
2024/04/12 13:25:15;;;;;;;0.10;0.10;;;;;;;;;;5382739;26;19996;-84
2024/04/12 13:27:49;;;;;;;0.20;0.20;;;;;;;;;;5381758;26;20016;-84
2024/04/12 13:30:16;;;;;;;0.20;0.20;;;;;;;;;;5381032;26;20000;-84
2024/04/12 13:32:50;;;;;;;0.20;0.20;;;;;;;;;;5352388;26;20016;-83
2024/04/12 13:35:19;;;;;;;0.10;0.10;;;;;;;;;;5381366;26;20028;-84
2024/04/12 13:37:48;;;;;;;0.20;0.20;;;;;;;;;;5380553;26;20345;-84
2024/04/12 13:40:18;;;;;;;0.13;0.13;;;;;;;;;;5380298;26;20029;-84
2024/04/12 13:42:48;;;;;;;0.10;0.10;;;;;;;;;;5382175;26;20003;-83
2024/04/12 13:50:56;;;;;;;0.10;0.10;;;;;;;;;;5380367;26;20025;-83
2024/04/12 13:53:32;;;;;;;0.20;0.20;;;;;;;;;;5380694;26;20021;-83
2024/04/12 13:58:53;;;;;;;0.20;0.20;;;;;;;;;;5382402;26;20003;-83
2024/04/12 14:01:22;;;;;;;0.10;0.10;;;;;;;;;;5380470;26;20020;-84
2024/04/12 14:04:10;;;;;;;0.20;0.20;;;;;;;;;;5379941;26;20020;-84
2024/04/12 14:06:40;;;;;;;0.10;0.10;;;;;;;;;;5381175;26;20033;-84
2024/04/12 14:09:13;;;;;;;0.20;0.20;;;;;;;;;;5380577;26;20016;-83
2024/04/12 14:11:40;;;;;;;0.20;0.20;;;;;;;;;;5379813;26;20020;-83
2024/04/12 14:14:07;;;;;;;0.10;0.10;;;;;;;;;;5381992;26;20467;-83
2024/04/12 14:16:41;;;;;;;0.10;0.10;;;;;;;;;;5380466;26;20020;-84
2024/04/12 14:19:17;;;;;;;0.20;0.20;;;;;;;;;;5382080;26;19997;-83
2024/04/12 14:21:46;;;;;;;0.10;0.10;;;;;;;;;;5382405;26;20004;-83
2024/04/12 14:24:56;;;;;;;0.10;0.10;;;;;;;;;;5379626;26;20460;-83
2024/04/12 14:27:02;;;;;;;0.20;0.20;;;;;;;;;;5380477;26;20025;-84
2024/04/12 14:29:36;;;;;;;0.10;0.10;;;;;;;;;;5351406;26;20468;-83
2024/04/12 14:32:06;;;;;;;3.30;0.20;;;;;;;;;;5381848;26;20004;-83
2024/04/12 14:34:34;;;;;;;0.25;0.25;;;;;;;;;;5381585;26;20000;-83
2024/04/12 14:37:01;;;;;;;0.17;0.17;;;;;;;;;;5381550;26;19996;-83
2024/04/12 14:39:29;;;;;;;0.15;0.15;;;;;;;;;;5381917;26;20011;-84
2024/04/12 14:41:56;;;;;;;0.10;0.10;;;;;;;;;;5381770;26;20015;-83
2024/04/12 14:44:24;;;;;;;0.10;0.10;;;;;;;;;;5379683;26;20012;-83
2024/04/12 14:46:51;;;;;;;1.95;0.90;;;;;;;;;;5381401;26;20004;-83
2024/04/12 14:49:18;;;;;;;0.13;0.13;;;;;;;;;;5379875;26;20032;-83
2024/04/12 14:51:47;;;;;;;0.10;0.10;;;;;;;;;;5381495;26;20003;-83
2024/04/12 14:54:14;;;;;;;0.10;0.10;;;;;;;;;;5381636;26;20420;-84
2024/04/12 14:56:42;;;;;;;0.10;0.10;;;;;;;;;;5379394;26;20019;-83
2024/04/12 14:59:11;;;;;;;0.10;0.10;;;;;;;;;;5381649;26;20011;-84
2024/04/12 15:01:38;;;;;;;0.10;0.10;;;;;;;;;;5379431;26;20025;-83
2024/04/12 15:48:26;;;;;;;0.10;0.10;;;;;;;;;;5380945;26;20021;-84
2024/04/12 15:50:54;;;;;;;0.10;0.10;;;;;;;;;;5380613;26;20436;-84
2024/04/12 15:53:30;;;;;;;1.27;1.27;;;;;;;;;;5384245;26;19996;-83
2024/04/12 16:12:19;;;;;;;0.20;0.20;;;;;;;;;;5383765;26;20000;-83
2024/04/12 16:14:46;;;;;;;0.10;0.10;;;;;;;;;;5383132;26;19996;-83
2024/04/12 16:17:14;;;;;;;0.20;0.20;;;;;;;;;;5383472;26;20000;-83
2024/04/12 16:19:42;;;;;;;0.17;0.17;;;;;;;;;;5380729;26;20011;-83
2024/04/12 16:22:09;;;;;;;0.10;0.10;;;;;;;;;;5381279;26;20016;-83
2024/04/12 16:24:37;;;;;;;0.10;0.10;;;;;;;;;;5381207;26;20468;-83
2024/04/12 16:27:07;;;;;;;0.10;0.10;;;;;;;;;;5382490;26;20337;-83
2024/04/12 16:29:35;;;;;;;0.17;0.17;;;;;;;;;;5383000;26;20167;-83
2024/04/12 16:32:06;;;;;;;0.10;0.10;;;;;;;;;;5382534;26;20004;-83
2024/04/12 16:34:33;;;;;;;0.10;0.10;;;;;;;;;;5382061;26;20353;-83
2024/04/12 16:37:00;;;;;;;0.10;0.10;;;;;;;;;;5382872;26;20001;-83
2024/04/12 16:39:27;;;;;;;0.10;0.10;;;;;;;;;;5352282;26;20452;-83
2024/04/12 16:41:55;;;;;;;0.10;0.10;;;;;;;;;;5380964;26;20029;-83
2024/04/12 16:44:23;;;;;;;0.10;0.10;;;;;;;;;;5382547;26;20007;-83
2024/04/12 16:46:51;;;;;;;0.10;0.10;;;;;;;;;;5382325;26;20024;-83
2024/04/12 16:49:18;;;;;;;0.10;0.10;;;;;;;;;;5381004;26;20029;-83
2024/04/12 16:51:46;;;;;;;0.10;0.10;;;;;;;;;;5383025;26;20353;-83
2024/04/12 16:54:14;;;;;;;0.10;0.10;;;;;;;;;;5323464;26;20476;-82
2024/04/12 16:56:42;;;;;;;0.10;0.10;;;;;;;;;;5382379;26;19996;-83
2024/04/12 16:59:11;;;;;;;0.10;0.10;;;;;;;;;;5382525;26;20000;-83
2024/04/12 17:01:38;;;;;;;0.10;0.10;;;;;;;;;;5382278;26;20436;-83
2024/04/12 17:04:05;;;;;;;0.10;0.10;;;;;;;;;;5379908;26;20035;-83
2024/04/12 17:06:34;;;;;;;0.20;0.20;;;;;;;;;;5352220;26;20435;-83
2024/04/12 17:09:09;;;;;;;0.10;0.10;;;;;;;;;;5380796;26;20016;-83
2024/04/12 17:11:37;;;;;;;0.20;0.20;;;;;;;;;;5380891;26;20025;-84
2024/04/12 17:14:04;;;;;;;0.30;0.30;;;;;;;;;;5382335;26;20000;-83
2024/04/12 17:16:31;;;;;;;0.10;0.10;;;;;;;;;;5351691;26;20468;-83
2024/04/12 17:18:59;;;;;;;0.13;0.13;;;;;;;;;;5380169;26;20004;-84
2024/04/12 17:21:27;;;;;;;0.10;0.10;;;;;;;;;;5381962;26;20011;-83
2024/04/12 17:23:54;;;;;;;0.15;0.15;;;;;;;;;;5380002;26;20036;-83
2024/04/12 17:26:21;;;;;;;0.20;0.20;;;;;;;;;;5381944;26;19996;-83
2024/04/12 17:28:48;;;;;;;0.10;0.10;;;;;;;;;;5381649;26;20127;-83
2024/04/12 17:31:16;;;;;;;0.10;0.10;;;;;;;;;;5381590;26;20360;-83
2024/04/12 17:33:43;;;;;;;0.10;0.10;;;;;;;;;;5379624;26;20000;-83
2024/04/12 17:36:12;;;;;;;0.10;0.10;;;;;;;;;;5381720;26;20357;-83
2024/04/12 17:38:39;;;;;;;0.10;0.10;;;;;;;;;;5380480;26;20020;-83